Wentzville, Missouri
Current Conditions -  °F | °C
As of 6:54 PM on Monday 24 Nov 2014 (Local Time) from KSUS Reporting Station
Overcast Overcast  
Wind Chill: 35°   Ceiling: 8500
Heat Index: 39°   Visibility: 10mi
Dew Point: 29°   Wind: 6mph
Humidity: 67%   Direction: 280°W
Pressure: 29.92"   Gusts: NA
Location:  38.81°N, 90.85°W
Report Text: KSUS 250054Z 28005KT 10SM OVC085 04/M02 A2992 RMK AO2 SLP136 T00391017
Loading
Personal Weather Stations






























Interactive Weather Map New forecast layout! Learn more

10-Day Weather Forecast

Advertisements
Track Severe Weather on mobile